Time;durP1;ratioP1;P1;durP2;ratioP2;P2;SDS_P1;SDS_P2;PMS_P1;PMS_P2;Temp;Humidity;BMP_temperature;BMP_pressure;BME280_temperature;BME280_humidity;BME280_pressure;Samples;Min_cycle;Max_cycle;Signal;HPM_P1;HPM_P2
2022/06/12 00:01:33;;;;;;;8.05;5.20;;;;;;;18.42;73.70;94433.38;4157200;28;20061;-51
2022/06/12 00:03:35;;;;;;;6.30;5.03;;;;;;;18.41;73.96;94426.44;4158170;28;20053;-53
2022/06/12 00:05:40;;;;;;;6.03;4.80;;;;;;;18.39;73.93;94432.97;4158810;28;20119;-53
2022/06/12 00:07:41;;;;;;;6.28;5.07;;;;;;;18.42;73.95;94429.91;4160789;28;20053;-52
2022/06/12 00:09:43;;;;;;;7.85;4.75;;;;;;;18.37;74.20;94437.72;4160289;28;20063;-51
2022/06/12 00:11:45;;;;;;;9.95;5.28;;;;;;;18.38;74.26;94434.00;4170566;28;20079;-53
2022/06/12 00:13:53;;;;;;;5.90;4.70;;;;;;;18.41;73.97;94431.75;4159735;28;20080;-50
2022/06/12 00:15:55;;;;;;;6.53;4.80;;;;;;;18.45;74.11;94432.13;4157030;28;20049;-54
2022/06/12 00:17:58;;;;;;;5.63;5.13;;;;;;;18.46;74.06;94422.34;4158936;28;20558;-52
2022/06/12 00:19:59;;;;;;;7.53;4.82;;;;;;;18.49;73.99;94422.72;4169864;28;20114;-50
2022/06/12 00:22:02;;;;;;;8.50;5.28;;;;;;;18.50;73.89;94411.09;4164792;28;20413;-52
2022/06/12 00:24:08;;;;;;;6.10;5.20;;;;;;;18.48;73.89;94418.44;4162640;28;20110;-52
2022/06/12 00:26:10;;;;;;;6.55;5.53;;;;;;;18.37;74.03;94429.75;4164855;28;20053;-50
2022/06/12 00:28:12;;;;;;;5.75;4.72;;;;;;;18.35;74.08;94424.66;4171207;28;20133;-52
2022/06/12 00:30:19;;;;;;;5.25;4.50;;;;;;;18.32;74.24;94427.72;4161082;28;20049;-50
2022/06/12 00:32:24;;;;;;;8.07;5.07;;;;;;;18.29;74.62;94425.50;4161639;28;20041;-49
2022/06/12 00:34:30;;;;;;;7.80;5.10;;;;;;;18.32;74.62;94422.41;4158427;28;20056;-51
2022/06/12 00:36:32;;;;;;;5.80;5.05;;;;;;;18.29;75.16;94419.38;4165290;28;20126;-53
2022/06/12 00:38:34;;;;;;;5.60;5.00;;;;;;;18.26;74.80;94417.97;4167099;28;20099;-53
2022/06/12 00:40:35;;;;;;;12.10;5.35;;;;;;;18.26;74.95;94417.97;4167474;28;20057;-51
2022/06/12 00:42:41;;;;;;;9.85;5.63;;;;;;;18.19;75.01;94419.84;4163651;28;20045;-53
2022/06/12 00:44:43;;;;;;;7.72;5.25;;;;;;;18.17;75.11;94424.53;4157687;28;20045;-53
2022/06/12 00:46:49;;;;;;;7.68;5.20;;;;;;;18.13;75.29;94423.34;4161572;28;20308;-51
2022/06/12 00:48:51;;;;;;;5.38;4.78;;;;;;;18.10;75.49;94424.59;4168384;28;20049;-51
2022/06/12 00:50:59;;;;;;;6.90;4.63;;;;;;;18.04;75.61;94424.63;4161827;28;20098;-53
2022/06/12 00:53:00;;;;;;;6.03;5.30;;;;;;;18.11;75.47;94425.38;4157965;28;20131;-54
2022/06/12 00:55:13;;;;;;;7.45;5.10;;;;;;;18.13;75.31;94418.88;4173891;28;20061;-50
2022/06/12 00:57:16;;;;;;;5.95;4.75;;;;;;;18.18;75.18;94420.88;4166022;28;20049;-51
2022/06/12 00:59:27;;;;;;;5.03;4.53;;;;;;;18.18;75.29;94420.88;4167924;28;20136;-51
2022/06/12 01:01:36;;;;;;;6.28;5.03;;;;;;;18.17;75.23;94417.41;4159939;28;20477;-54
2022/06/12 01:06:33;;;;;;;7.75;5.35;;;;;;;18.14;75.03;94417.84;4175526;28;20060;-54
2022/06/12 01:08:40;;;;;;;8.25;5.38;;;;;;;18.10;75.43;94413.19;4174338;28;20462;-50
2022/06/12 01:10:45;;;;;;;6.18;5.47;;;;;;;18.00;75.84;94416.28;4162104;28;20063;-51
2022/06/12 01:12:54;;;;;;;7.50;5.32;;;;;;;17.99;75.79;94417.31;4162037;28;20050;-50
2022/06/12 01:15:04;;;;;;;7.60;5.20;;;;;;;18.00;76.05;94411.81;4169161;28;20118;-49
2022/06/12 01:17:06;;;;;;;7.03;5.32;;;;;;;17.97;75.61;94414.84;4159020;28;20455;-51
2022/06/12 01:19:16;;;;;;;7.80;5.47;;;;;;;17.93;76.05;94416.31;4161396;28;20756;-51
2022/06/12 01:21:47;;;;;;;8.68;5.60;;;;;;;17.94;76.09;94411.81;4158243;28;20110;-52
2022/06/12 01:23:58;;;;;;;5.55;5.00;;;;;;;17.95;76.04;94406.31;4170340;28;20111;-52
2022/06/12 01:26:15;;;;;;;6.43;5.18;;;;;;;18.01;75.90;94402.81;4172211;28;20049;-55
2022/06/12 01:28:44;;;;;;;6.00;4.90;;;;;;;18.00;75.82;94393.25;4171779;28;20548;-53
2022/06/12 01:30:57;;;;;;;7.00;5.30;;;;;;;17.98;75.87;94394.47;4170189;28;20102;-53
2022/06/12 01:33:14;;;;;;;10.00;5.90;;;;;;;17.96;75.71;94391.22;4146774;28;20485;-51
2022/06/12 01:35:31;;;;;;;8.70;5.75;;;;;;;17.96;75.99;94380.59;4172867;28;20046;-49
2022/06/12 01:37:55;;;;;;;9.18;5.22;;;;;;;17.95;75.75;94390.41;4172616;28;20433;-49
2022/06/12 01:40:22;;;;;;;7.10;5.68;;;;;;;17.94;75.85;94383.50;4167262;28;20056;-54
2022/06/12 01:42:59;;;;;;;7.40;5.18;;;;;;;17.91;75.69;94383.09;4173191;28;20045;-50
2022/06/12 01:45:12;;;;;;;7.15;5.18;;;;;;;17.97;75.81;94382.25;4162082;28;20126;-48
2022/06/12 01:47:37;;;;;;;6.10;5.45;;;;;;;18.00;75.78;94382.66;4160938;28;20046;-52
2022/06/12 01:49:57;;;;;;;10.18;5.22;;;;;;;18.03;75.39;94386.72;4168902;28;20056;-51
2022/06/12 01:52:51;;;;;;;7.60;5.03;;;;;;;18.11;75.02;94391.75;4168893;28;20061;-52
2022/06/12 01:55:02;;;;;;;7.32;5.35;;;;;;;18.15;74.94;94392.94;4129859;28;20053;-52
2022/06/12 01:57:09;;;;;;;6.32;5.00;;;;;;;18.20;74.81;94392.31;4174851;28;20057;-50
2022/06/12 01:59:23;;;;;;;7.20;5.18;;;;;;;18.14;74.85;94390.53;4159104;28;20049;-53
2022/06/12 02:01:30;;;;;;;5.50;4.97;;;;;;;18.08;74.53;94399.31;4161538;28;20103;-51
2022/06/12 02:03:46;;;;;;;8.68;5.55;;;;;;;18.09;74.72;94395.63;4171585;28;20444;-50
2022/06/12 02:06:05;;;;;;;5.32;4.63;;;;;;;18.06;74.66;94396.88;4164442;28;20529;-52
2022/06/12 02:08:19;;;;;;;5.68;4.80;;;;;;;18.07;74.55;94395.88;4168504;28;20135;-50
2022/06/12 02:10:35;;;;;;;8.48;5.45;;;;;;;18.04;74.51;94398.13;4165222;28;20555;-52
2022/06/12 02:15:02;;;;;;;6.35;5.47;;;;;;;18.07;74.85;94403.81;4168233;28;20049;-52
2022/06/12 02:17:07;;;;;;;7.13;4.68;;;;;;;18.06;74.35;94396.06;4175816;28;20091;-52
2022/06/12 02:19:16;;;;;;;5.97;5.15;;;;;;;18.06;74.49;94396.88;4172986;28;20230;-53
2022/06/12 02:22:02;;;;;;;7.18;5.07;;;;;;;18.00;74.48;94390.59;4171640;28;20112;-53
2022/06/12 02:24:09;;;;;;;6.82;5.03;;;;;;;17.96;74.71;94385.91;4162142;28;20045;-56
2022/06/12 02:26:14;;;;;;;7.53;5.15;;;;;;;17.96;75.12;94396.50;4159688;28;20056;-52
2022/06/12 02:28:19;;;;;;;8.20;5.07;;;;;;;17.99;74.87;94398.75;4167858;28;20099;-53
2022/06/12 02:30:35;;;;;;;8.45;4.82;;;;;;;17.98;74.80;94395.31;4163129;28;20184;-53
2022/06/12 02:32:41;;;;;;;9.43;5.28;;;;;;;17.99;74.61;94394.25;4158923;28;20067;-50
2022/06/12 02:34:47;;;;;;;9.57;5.30;;;;;;;18.03;74.50;94385.91;4174275;28;20049;-53
2022/06/12 02:36:52;;;;;;;6.82;5.30;;;;;;;18.01;74.31;94389.56;4169314;28;20532;-53
2022/06/12 02:39:01;;;;;;;6.00;5.22;;;;;;;18.00;74.30;94389.75;4158542;28;20107;-50
2022/06/12 02:41:11;;;;;;;6.60;5.38;;;;;;;17.97;74.57;94403.44;4163584;28;20053;-48
2022/06/12 02:43:16;;;;;;;8.10;5.30;;;;;;;17.97;74.70;94393.66;4166459;28;20088;-50
2022/06/12 02:46:02;;;;;;;8.65;5.20;;;;;;;18.01;74.73;94399.34;4157466;28;20057;-47
2022/06/12 02:48:06;;;;;;;7.85;5.20;;;;;;;18.04;74.41;94393.63;4140664;28;20127;-53
2022/06/12 02:50:10;;;;;;;6.57;5.80;;;;;;;17.97;74.69;94400.81;4151439;28;20266;-50
2022/06/12 02:52:19;;;;;;;;;;;;;;;17.97;74.70;94392.84;4152987;28;20526;-52
2022/06/12 02:54:32;;;;;;;5.80;5.20;;;;;;;17.91;74.89;94405.09;4169892;28;20035;-51
2022/06/12 02:56:48;;;;;;;6.32;5.70;;;;;;;17.89;74.99;94407.16;4175857;28;20148;-49
2022/06/12 02:59:29;;;;;;;6.47;5.45;;;;;;;17.90;75.11;94403.50;4175292;28;20087;-51
2022/06/12 03:01:37;;;;;;;6.00;5.38;;;;;;;17.88;74.78;94410.03;4159440;28;20057;-51
2022/06/12 03:03:44;;;;;;;9.85;5.82;;;;;;;17.85;74.92;94411.25;4170800;28;20541;-50
2022/06/12 03:05:53;;;;;;;7.40;5.25;;;;;;;17.84;74.91;94414.13;4167441;28;20107;-50
2022/06/12 03:08:06;;;;;;;7.55;5.45;;;;;;;17.88;74.72;94408.19;4174597;28;20159;-52
2022/06/12 03:10:12;;;;;;;7.00;6.15;;;;;;;17.94;74.62;94401.22;4159572;28;20104;-53
2022/06/12 03:12:13;;;;;;;6.15;5.55;;;;;;;17.97;74.52;94398.16;4162327;28;20114;-53
2022/06/12 03:14:19;;;;;;;9.23;5.60;;;;;;;17.96;74.52;94407.94;4169038;28;20053;-51
2022/06/12 03:16:29;;;;;;;6.25;5.65;;;;;;;17.96;74.65;94407.13;4167852;28;20069;-48
2022/06/12 03:18:33;;;;;;;6.68;5.43;;;;;;;17.90;74.68;94403.50;4161137;28;20151;-49
2022/06/12 03:21:10;;;;;;;6.15;5.35;;;;;;;17.90;75.07;94408.78;4173676;28;20133;-51
2022/06/12 03:23:35;;;;;;;8.13;6.03;;;;;;;17.91;74.89;94401.66;4175964;28;20106;-50
2022/06/12 03:25:43;;;;;;;7.13;5.55;;;;;;;17.88;74.78;94402.88;4173846;28;20061;-52
2022/06/12 03:27:53;;;;;;;8.40;6.28;;;;;;;17.88;75.23;94405.53;4174553;28;20056;-50
2022/06/12 03:30:26;;;;;;;11.80;6.32;;;;;;;17.87;75.26;94405.75;4174130;28;20496;-53
2022/06/12 03:32:41;;;;;;;8.52;5.80;;;;;;;17.87;74.71;94401.25;4161678;28;20110;-53
2022/06/12 03:35:09;;;;;;;7.28;6.22;;;;;;;17.84;74.94;94404.31;4169791;28;20343;-52
2022/06/12 03:38:00;;;;;;;7.93;5.80;;;;;;;17.79;75.13;94404.94;4173525;28;20117;-48
2022/06/12 03:40:14;;;;;;;7.72;6.93;;;;;;;17.84;75.09;94409.63;4157912;28;20045;-48
2022/06/12 03:42:40;;;;;;;10.50;7.70;;;;;;;17.89;74.84;94401.84;4161654;28;20505;-52
2022/06/12 03:44:48;;;;;;;10.32;7.38;;;;;;;17.87;74.96;94401.25;4179914;28;20045;-52
2022/06/12 03:46:52;;;;;;;6.82;6.13;;;;;;;17.84;75.01;94406.19;4159364;28;20057;-51
2022/06/12 03:49:14;;;;;;;7.90;6.25;;;;;;;17.84;75.13;94406.97;4161649;28;20068;-50
2022/06/12 03:51:27;;;;;;;7.25;6.55;;;;;;;17.82;75.29;94406.38;4161690;28;20052;-52
2022/06/12 03:53:40;;;;;;;7.90;6.28;;;;;;;17.83;75.16;94404.53;4165293;28;20118;-51
2022/06/12 03:58:18;;;;;;;8.80;7.05;;;;;;;17.86;75.32;94417.38;4161085;28;20395;-53
2022/06/12 04:00:36;;;;;;;8.52;7.40;;;;;;;17.86;75.27;94409.44;4157261;28;20045;-49
2022/06/12 04:02:38;;;;;;;7.93;7.13;;;;;;;17.92;75.33;94417.34;4157778;28;20498;-51
2022/06/12 04:04:41;;;;;;;8.07;7.28;;;;;;;17.96;74.86;94412.41;4168849;28;20194;-52
2022/06/12 04:06:43;;;;;;;;;;;;;;;17.98;75.07;94411.19;4170149;28;20081;-51
2022/06/12 04:08:51;;;;;;;11.93;6.95;;;;;;;17.98;74.92;94416.50;4171646;28;20463;-50
2022/06/12 04:10:54;;;;;;;9.98;7.00;;;;;;;17.97;75.03;94417.50;4160776;28;20054;-52
2022/06/12 04:12:56;;;;;;;10.05;7.40;;;;;;;17.93;75.58;94411.00;4160222;28;20094;-52
2022/06/12 04:15:08;;;;;;;8.63;7.72;;;;;;;17.96;75.46;94410.59;4167108;28;20196;-53
2022/06/12 04:17:10;;;;;;;11.00;8.45;;;;;;;18.00;75.41;94421.56;4165688;28;20102;-51
2022/06/12 04:19:17;;;;;;;9.15;8.10;;;;;;;17.99;75.25;94419.97;4168362;28;20046;-51
2022/06/12 04:21:35;;;;;;;9.40;7.75;;;;;;;18.03;75.30;94421.16;4168256;28;20052;-50
2022/06/12 04:24:03;;;;;;;8.60;7.70;;;;;;;18.01;75.13;94416.06;4179377;28;20045;-48
2022/06/12 04:26:17;;;;;;;8.07;7.22;;;;;;;18.00;75.20;94427.72;4164775;28;20045;-49
2022/06/12 04:28:35;;;;;;;10.30;8.63;;;;;;;18.04;75.35;94428.06;4168623;28;20053;-50
2022/06/12 04:30:38;;;;;;;14.40;8.25;;;;;;;18.06;75.20;94433.19;4159003;28;20053;-49
2022/06/12 04:32:40;;;;;;;8.23;7.43;;;;;;;18.11;75.18;94434.19;4166270;28;20053;-48
2022/06/12 04:34:42;;;;;;;14.25;7.78;;;;;;;18.14;74.90;94436.38;4158780;28;20111;-46
2022/06/12 04:36:48;;;;;;;8.93;8.03;;;;;;;18.12;75.05;94432.34;4161996;28;20506;-49
2022/06/12 04:38:53;;;;;;;10.85;8.60;;;;;;;18.06;75.16;94438.47;4161931;28;20300;-50
2022/06/12 04:40:55;;;;;;;11.48;8.20;;;;;;;17.99;75.11;94441.16;4166515;28;20052;-49
2022/06/12 04:42:57;;;;;;;10.48;7.85;;;;;;;17.98;75.39;94432.41;4165710;28;20045;-51
2022/06/12 04:45:00;;;;;;;9.18;8.05;;;;;;;18.01;75.18;94436.47;4170163;28;20049;-50
2022/06/12 04:47:03;;;;;;;;;;;;;;;18.08;75.17;94439.06;4160031;28;20073;-50
2022/06/12 04:49:05;;;;;;;10.73;8.27;;;;;;;18.08;75.25;94433.78;4166627;28;19924;-50
2022/06/12 04:51:09;;;;;;;8.57;7.68;;;;;;;18.12;75.08;94432.34;4161357;28;20061;-52
2022/06/12 04:53:10;;;;;;;10.20;8.02;;;;;;;18.17;74.67;94435.94;4167950;28;20489;-49
2022/06/12 04:55:12;;;;;;;8.77;7.68;;;;;;;18.21;74.59;94436.34;4156983;28;20049;-46
2022/06/12 04:57:16;;;;;;;8.98;8.07;;;;;;;18.24;74.65;94437.75;4173413;28;20053;-50
2022/06/12 04:59:19;;;;;;;8.90;8.00;;;;;;;18.29;74.27;94438.75;4173215;28;20056;-49
2022/06/12 05:01:22;;;;;;;9.03;8.13;;;;;;;18.33;73.92;94441.81;4172074;28;20727;-52
2022/06/12 05:03:29;;;;;;;10.35;7.45;;;;;;;18.30;74.06;94443.03;4157206;28;20080;-52
2022/06/12 05:05:31;;;;;;;9.60;8.32;;;;;;;18.37;74.11;94443.00;4158261;28;20576;-50
2022/06/12 05:07:33;;;;;;;8.98;7.80;;;;;;;18.39;73.86;94441.75;4166599;28;20079;-52
2022/06/12 05:09:36;;;;;;;8.75;7.85;;;;;;;18.49;73.58;94443.94;4174651;28;20126;-51
2022/06/12 05:11:39;;;;;;;9.88;7.25;;;;;;;18.54;73.35;94444.13;4160776;28;20076;-52
2022/06/12 05:13:41;;;;;;;8.45;7.55;;;;;;;18.63;73.08;94447.31;4161146;28;20438;-49
2022/06/12 05:15:44;;;;;;;8.40;7.25;;;;;;;18.63;73.18;94449.97;4161227;28;20045;-53
2022/06/12 05:17:48;;;;;;;9.10;7.68;;;;;;;18.73;72.97;94444.97;4166600;28;20093;-54
2022/06/12 05:19:49;;;;;;;10.18;7.80;;;;;;;18.77;72.61;94440.06;4165220;28;20057;-54
2022/06/12 05:21:51;;;;;;;9.35;7.65;;;;;;;18.74;72.33;94446.63;4158507;28;20136;-53
2022/06/12 05:23:53;;;;;;;9.25;7.80;;;;;;;18.77;72.29;94445.38;4158412;28;20056;-52
2022/06/12 05:25:55;;;;;;;7.75;6.85;;;;;;;18.73;72.22;94450.28;4162806;28;20052;-52
2022/06/12 05:28:03;;;;;;;11.10;7.32;;;;;;;18.75;72.18;94442.13;4166560;28;20091;-53
2022/06/12 05:30:06;;;;;;;10.63;8.27;;;;;;;18.71;72.38;94446.22;4155171;28;20103;-51
2022/06/12 05:32:12;;;;;;;9.40;7.20;;;;;;;18.77;72.31;94442.72;4171970;28;20054;-51
2022/06/12 05:34:15;;;;;;;8.57;7.50;;;;;;;18.87;71.88;94436.97;4174590;28;20045;-51
2022/06/12 05:36:17;;;;;;;10.77;7.00;;;;;;;18.91;71.85;94435.50;4168035;28;20061;-49
2022/06/12 05:38:19;;;;;;;10.20;7.57;;;;;;;18.91;71.85;94446.94;4158119;28;20081;-51
2022/06/12 05:40:25;;;;;;;8.52;7.63;;;;;;;19.00;71.71;94453.59;4167612;28;20189;-52
2022/06/12 05:42:28;;;;;;;8.73;7.30;;;;;;;19.01;71.26;94449.91;4176875;28;20111;-47
2022/06/12 05:44:29;;;;;;;7.85;7.05;;;;;;;19.05;71.15;94452.94;4172463;28;20126;-49
2022/06/12 05:46:31;;;;;;;8.52;7.65;;;;;;;19.08;71.34;94451.69;4161347;28;20057;-50
2022/06/12 05:48:33;;;;;;;7.93;6.97;;;;;;;19.07;71.40;94455.38;4160787;28;20652;-48
2022/06/12 05:50:37;;;;;;;8.20;7.32;;;;;;;19.08;70.89;94451.69;4169417;28;20144;-53
2022/06/12 05:52:38;;;;;;;;;;;;;;;19.07;71.20;94453.53;4166518;28;20119;-52
2022/06/12 05:54:42;;;;;;;7.70;6.90;;;;;;;19.01;71.38;94449.09;4164734;28;19982;-50
2022/06/12 05:56:43;;;;;;;;;;;;;;;18.82;71.68;94454.34;4162437;28;20088;-50
2022/06/12 05:58:46;;;;;;;8.20;7.40;;;;;;;18.74;72.22;94456.44;4166123;28;19927;-53
2022/06/12 06:00:48;;;;;;;8.43;7.55;;;;;;;18.79;72.29;94460.06;4167630;28;20131;-48
2022/06/12 06:02:50;;;;;;;8.80;6.80;;;;;;;18.88;72.07;94460.63;4171928;28;20049;-55
2022/06/12 06:04:52;;;;;;;12.45;7.85;;;;;;;18.92;71.88;94458.34;4162442;28;20101;-53
2022/06/12 06:06:57;;;;;;;13.23;8.13;;;;;;;18.97;72.37;94455.84;4160788;28;20045;-53
2022/06/12 06:08:59;;;;;;;7.35;6.40;;;;;;;19.03;71.67;94465.63;4168890;28;20048;-50
2022/06/12 06:11:01;;;;;;;8.25;7.40;;;;;;;19.03;71.81;94463.75;4162186;28;20061;-51
2022/06/12 06:13:03;;;;;;;8.50;7.07;;;;;;;19.06;71.59;94461.72;4171847;28;20545;-55
2022/06/12 06:15:06;;;;;;;12.27;7.32;;;;;;;19.14;71.29;94469.41;4163535;28;20060;-54
2022/06/12 06:17:07;;;;;;;8.70;7.13;;;;;;;19.19;71.18;94465.06;4160232;28;20057;-53
2022/06/12 06:19:10;;;;;;;8.93;7.90;;;;;;;19.20;70.85;94471.19;4162671;28;20103;-52
2022/06/12 06:21:14;;;;;;;8.57;7.45;;;;;;;19.26;71.12;94480.13;4160472;28;20053;-52
2022/06/12 06:23:21;;;;;;;11.07;7.85;;;;;;;19.34;70.87;94471.91;4171250;28;20049;-56
2022/06/12 06:25:25;;;;;;;10.10;7.53;;;;;;;19.38;70.56;94475.72;4174876;28;20057;-52
2022/06/12 06:27:26;;;;;;;8.05;7.25;;;;;;;19.43;70.38;94475.88;4172499;28;20068;-48
2022/06/12 06:29:28;;;;;;;9.98;7.40;;;;;;;19.45;70.69;94481.81;4162249;28;20061;-53
2022/06/12 06:31:30;;;;;;;11.40;7.22;;;;;;;19.41;70.54;94485.91;4167057;28;20547;-53
2022/06/12 06:33:32;;;;;;;10.13;7.53;;;;;;;19.30;70.54;94489.28;4165176;28;20053;-53
2022/06/12 06:35:40;;;;;;;8.88;7.45;;;;;;;19.32;70.55;94487.25;4163288;28;20132;-55
2022/06/12 06:37:42;;;;;;;9.40;7.10;;;;;;;19.33;70.77;94491.50;4160348;28;20089;-50
2022/06/12 06:39:44;;;;;;;11.25;7.30;;;;;;;19.34;70.46;94495.81;4161835;28;20115;-52
2022/06/12 06:41:45;;;;;;;10.10;7.43;;;;;;;19.33;70.60;94499.47;4167513;28;20156;-52
2022/06/12 06:46:14;;;;;;;9.00;7.47;;;;;;;19.34;70.89;94495.81;4158673;28;20045;-48
2022/06/12 06:48:16;;;;;;;8.20;7.30;;;;;;;19.27;70.78;94495.03;4172416;28;20510;-54
2022/06/12 06:50:19;;;;;;;9.05;7.63;;;;;;;19.17;71.58;94495.53;4159651;28;20123;-52
2022/06/12 06:52:21;;;;;;;11.27;7.18;;;;;;;19.22;71.40;94496.50;4168612;28;20060;-51
2022/06/12 06:54:23;;;;;;;8.98;7.68;;;;;;;19.27;71.22;94501.16;4175062;28;20482;-55
2022/06/12 06:56:25;;;;;;;10.23;7.40;;;;;;;19.34;71.22;94503.78;4162751;28;20189;-50
2022/06/12 06:58:27;;;;;;;9.52;7.70;;;;;;;19.42;70.90;94506.13;4176633;28;20052;-53
2022/06/12 07:00:31;;;;;;;8.95;7.50;;;;;;;19.50;70.60;94503.19;4168474;28;20049;-47
2022/06/12 07:02:33;;;;;;;8.40;7.47;;;;;;;19.57;70.31;94503.94;4160200;28;20041;-52
2022/06/12 07:04:35;;;;;;;8.48;7.65;;;;;;;19.69;69.98;94501.38;4169678;28;20076;-49
2022/06/12 07:06:37;;;;;;;11.40;7.25;;;;;;;19.83;69.38;94502.91;4162070;28;20250;-51
2022/06/12 07:08:39;;;;;;;8.05;7.18;;;;;;;19.91;68.93;94507.09;4171912;28;20045;-51
2022/06/12 07:10:42;;;;;;;7.72;6.93;;;;;;;20.02;68.70;94497.56;4170247;28;20613;-52
2022/06/12 07:12:44;;;;;;;7.20;6.45;;;;;;;20.10;68.56;94499.94;4163488;28;20191;-52
2022/06/12 07:14:46;;;;;;;9.43;6.88;;;;;;;20.19;68.41;94503.09;4169628;28;20045;-51
2022/06/12 07:16:48;;;;;;;13.55;8.35;;;;;;;20.28;68.28;94499.09;4175736;28;20095;-51
2022/06/12 07:18:50;;;;;;;7.88;7.07;;;;;;;20.39;68.14;94500.19;4163391;28;20148;-50
2022/06/12 07:20:55;;;;;;;9.02;7.03;;;;;;;20.39;67.75;94503.69;4161262;28;20046;-52
2022/06/12 07:22:57;;;;;;;7.80;7.03;;;;;;;20.41;66.99;94500.78;4175991;28;20067;-51
2022/06/12 07:24:58;;;;;;;7.80;7.00;;;;;;;20.42;67.36;94505.88;4157663;28;20042;-53
2022/06/12 07:27:00;;;;;;;7.03;6.32;;;;;;;20.45;67.33;94502.75;4159403;28;20521;-50
2022/06/12 07:29:03;;;;;;;9.10;6.95;;;;;;;20.44;66.92;94509.13;4170182;28;20057;-52
2022/06/12 07:31:06;;;;;;;7.50;6.43;;;;;;;20.45;67.04;94501.94;4157493;28;20053;-50
2022/06/12 07:33:08;;;;;;;8.57;7.13;;;;;;;20.46;66.95;94509.72;4163023;28;20053;-50
2022/06/12 07:35:10;;;;;;;7.90;6.72;;;;;;;20.46;67.20;94509.72;4165838;28;20046;-49
2022/06/12 07:37:12;;;;;;;9.18;6.80;;;;;;;20.42;67.10;94508.53;4159438;28;20072;-49
2022/06/12 07:39:18;;;;;;;7.65;6.93;;;;;;;20.44;67.04;94517.09;4171584;28;20114;-52
2022/06/12 07:41:20;;;;;;;8.27;7.03;;;;;;;20.52;67.19;94517.81;4159315;28;20502;-52
2022/06/12 07:43:22;;;;;;;7.75;6.90;;;;;;;20.53;66.86;94517.59;4158729;28;20049;-50
2022/06/12 07:45:24;;;;;;;7.97;7.17;;;;;;;20.52;66.98;94518.66;4157811;28;20125;-49
2022/06/12 07:47:27;;;;;;;8.93;7.22;;;;;;;20.53;67.08;94514.94;4159232;28;20200;-52
2022/06/12 07:49:30;;;;;;;7.20;6.30;;;;;;;20.58;67.07;94519.63;4158959;28;20600;-50
2022/06/12 07:51:32;;;;;;;8.00;6.90;;;;;;;20.63;66.85;94520.56;4171114;28;20301;-53
2022/06/12 07:53:34;;;;;;;9.27;7.57;;;;;;;20.67;66.83;94518.25;4171154;28;20288;-47
2022/06/12 07:55:36;;;;;;;10.98;7.15;;;;;;;20.73;66.44;94522.69;4158439;28;20053;-51
2022/06/12 07:57:39;;;;;;;9.30;6.80;;;;;;;20.80;66.52;94517.25;4159232;28;20045;-49
2022/06/12 07:59:40;;;;;;;11.18;7.20;;;;;;;20.80;66.32;94520.75;4167258;28;20120;-52
2022/06/12 08:01:42;;;;;;;7.68;6.93;;;;;;;20.78;66.55;94522.84;4161283;28;20057;-48
2022/06/12 08:03:44;;;;;;;7.95;6.57;;;;;;;20.78;66.01;94520.16;4160342;28;20053;-52
2022/06/12 08:05:46;;;;;;;8.10;7.30;;;;;;;20.81;66.45;94519.69;4158844;28;20096;-50
2022/06/12 08:07:48;;;;;;;8.23;7.43;;;;;;;20.85;66.47;94517.41;4169126;28;20122;-52
2022/06/12 08:09:50;;;;;;;8.52;6.90;;;;;;;20.90;66.56;94508.72;4162353;28;20132;-53
2022/06/12 08:11:52;;;;;;;9.60;7.13;;;;;;;20.94;66.52;94521.34;4160213;28;20518;-50
2022/06/12 08:13:54;;;;;;;8.10;6.68;;;;;;;20.98;66.00;94516.41;4162933;28;20045;-52
2022/06/12 08:15:57;;;;;;;7.32;6.50;;;;;;;21.00;66.23;94516.97;4165540;28;20079;-49
2022/06/12 08:17:59;;;;;;;7.40;6.60;;;;;;;21.01;66.39;94518.59;4159446;28;20115;-53
2022/06/12 08:22:21;;;;;;;9.18;6.30;;;;;;;20.97;66.05;94530.75;4162335;28;20118;-52
2022/06/12 08:24:22;;;;;;;6.93;6.05;;;;;;;20.98;66.26;94521.72;4169071;28;20103;-50
2022/06/12 08:26:28;;;;;;;7.93;6.90;;;;;;;20.98;66.36;94521.72;4167607;28;20362;-52
2022/06/12 08:28:34;;;;;;;7.03;6.32;;;;;;;20.99;66.75;94532.16;4163098;28;20057;-52
2022/06/12 08:30:35;;;;;;;12.15;6.93;;;;;;;20.98;67.47;94532.38;4156142;28;20115;-49
2022/06/12 08:32:38;;;;;;;8.25;6.10;;;;;;;20.96;67.06;94537.13;4161575;28;20136;-52
2022/06/12 08:34:44;;;;;;;7.88;5.88;;;;;;;20.93;66.44;94521.56;4166621;28;20506;-50
2022/06/12 08:36:46;;;;;;;10.05;6.18;;;;;;;20.93;66.75;94532.22;4158855;28;20065;-53
2022/06/12 08:38:49;;;;;;;9.95;7.07;;;;;;;20.92;67.71;94535.94;4171969;28;20075;-52
2022/06/12 08:41:49;;;;;;;10.63;7.95;;;;;;;20.91;68.13;94534.31;4167239;28;20053;-51
2022/06/12 08:44:03;;;;;;;8.52;7.68;;;;;;;21.02;68.40;94536.22;4104736;28;20512;-49
2022/06/12 08:46:16;;;;;;;15.07;7.75;;;;;;;21.13;68.25;94538.09;4128586;28;20045;-54
2022/06/12 08:48:33;;;;;;;9.73;7.93;;;;;;;21.22;69.58;94536.69;4160261;28;20049;-54
2022/06/12 08:51:02;;;;;;;9.55;7.70;;;;;;;21.31;69.34;94536.38;4167146;28;20045;-51
2022/06/12 08:53:21;;;;;;;8.95;7.38;;;;;;;21.37;69.45;94536.25;4170856;28;20103;-51
2022/06/12 08:55:54;;;;;;;10.55;8.77;;;;;;;21.41;68.83;94541.97;4156505;28;20103;-53
2022/06/12 08:58:14;;;;;;;8.25;7.45;;;;;;;21.46;69.05;94547.44;4158449;28;20050;-50
2022/06/12 09:00:31;;;;;;;9.23;7.47;;;;;;;21.47;68.48;94543.72;4167612;28;20045;-48
2022/06/12 09:02:36;;;;;;;9.65;7.25;;;;;;;21.46;68.64;94536.78;4158516;28;20075;-50
2022/06/12 09:04:38;;;;;;;11.55;7.50;;;;;;;21.44;68.11;94549.50;4168405;28;20049;-52
2022/06/12 09:06:52;;;;;;;9.93;7.18;;;;;;;21.45;67.98;94541.28;4173534;28;20060;-51
2022/06/12 09:09:02;;;;;;;;;;;;;;;21.44;67.49;94539.66;4175075;28;20049;-50
2022/06/12 09:11:15;;;;;;;8.32;6.57;;;;;;;21.42;67.28;94536.44;4166023;28;20014;-53
2022/06/12 09:13:20;;;;;;;8.73;7.00;;;;;;;21.39;66.64;94539.50;4166129;28;20049;-54
2022/06/12 09:15:39;;;;;;;9.90;6.55;;;;;;;21.39;66.43;94541.38;4158907;28;20231;-47
2022/06/12 09:18:10;;;;;;;9.02;6.68;;;;;;;21.42;65.87;94535.59;4167611;28;20063;-50
2022/06/12 09:20:47;;;;;;;8.93;7.13;;;;;;;21.50;66.11;94537.94;4164783;28;20060;-53
2022/06/12 09:23:07;;;;;;;8.23;6.50;;;;;;;21.56;67.43;94542.34;4167009;28;20504;-50
2022/06/12 09:25:46;;;;;;;7.22;6.03;;;;;;;21.62;66.79;94541.44;4177834;28;20095;-50
2022/06/12 09:28:06;;;;;;;7.97;6.32;;;;;;;21.66;66.36;94539.09;4161655;28;20049;-51
2022/06/12 09:30:14;;;;;;;7.43;6.07;;;;;;;21.70;65.37;94539.44;4160026;28;20046;-52
2022/06/12 09:32:26;;;;;;;9.05;6.13;;;;;;;21.71;65.39;94546.41;4171960;28;20044;-53
2022/06/12 09:35:06;;;;;;;6.57;5.32;;;;;;;21.67;64.85;94548.72;4160210;28;20046;-50
2022/06/12 09:40:09;;;;;;;7.00;5.57;;;;;;;21.64;64.77;94550.00;4164124;28;20150;-50
2022/06/12 09:42:21;;;;;;;7.28;5.40;;;;;;;21.66;64.44;94555.09;4177206;28;20053;-53
2022/06/12 09:44:25;;;;;;;9.55;5.85;;;;;;;21.66;65.18;94553.25;4178041;28;20085;-52
2022/06/12 09:46:46;;;;;;;7.72;5.88;;;;;;;21.60;65.77;94550.69;4173632;28;20114;-54
2022/06/12 09:49:02;;;;;;;5.95;5.35;;;;;;;21.58;65.95;94548.25;4161603;28;20049;-52
2022/06/12 09:51:26;;;;;;;6.60;5.75;;;;;;;21.60;65.94;94551.50;4169358;28;20187;-53
2022/06/12 09:53:47;;;;;;;6.18;5.57;;;;;;;21.59;66.39;94541.88;4154889;28;20111;-51
2022/06/12 09:55:54;;;;;;;5.88;5.28;;;;;;;21.58;66.34;94550.91;4162075;28;20045;-53
2022/06/12 09:58:12;;;;;;;6.93;6.00;;;;;;;21.60;66.84;94543.50;4160500;28;20559;-48
2022/06/12 10:00:22;;;;;;;9.38;6.30;;;;;;;21.61;66.52;94542.44;4160172;28;20483;-50
2022/06/12 10:02:51;;;;;;;8.20;6.65;;;;;;;21.64;66.18;94538.53;4165892;28;20067;-54
2022/06/12 10:05:15;;;;;;;7.82;6.47;;;;;;;21.55;65.56;94537.22;4174509;28;20140;-51
2022/06/12 10:07:24;;;;;;;7.38;6.07;;;;;;;21.50;67.15;94535.28;4164572;28;20049;-53
2022/06/12 10:09:37;;;;;;;6.97;6.03;;;;;;;21.47;67.27;94535.75;4161327;28;20107;-53
2022/06/12 10:11:44;;;;;;;10.68;6.00;;;;;;;21.42;67.08;94540.94;4170024;28;20459;-55
2022/06/12 10:14:01;;;;;;;7.30;5.95;;;;;;;21.38;68.02;94535.25;4185064;28;20563;-50
2022/06/12 10:16:13;;;;;;;8.02;5.45;;;;;;;21.37;67.76;94535.47;4159047;28;20053;-51
2022/06/12 10:18:29;;;;;;;6.03;5.43;;;;;;;21.33;67.61;94534.28;4169677;28;20056;-52
2022/06/12 10:20:34;;;;;;;7.88;5.30;;;;;;;21.34;67.71;94536.75;4162111;28;20076;-52
2022/06/12 10:22:42;;;;;;;6.93;5.47;;;;;;;21.31;66.75;94526.53;4177686;28;20071;-53